sensor_id;sensor_type;location;lat;lon;timestamp;pressure;altitude;pressure_sealevel;temperature;humidity
7075;BME280;3578;51.568;6.932;2022-07-23T00:00:20;55838.34;;;-144.14;99.72
7075;BME280;3578;51.568;6.932;2022-07-23T00:02:48;55878.47;;;-144.14;99.65
7075;BME280;3578;51.568;6.932;2022-07-23T00:05:15;55860.41;;;-144.14;99.69
7075;BME280;3578;51.568;6.932;2022-07-23T00:07:42;55882.47;;;-144.14;99.97
7075;BME280;3578;51.568;6.932;2022-07-23T00:10:11;55892.50;;;-144.14;99.89
7075;BME280;3578;51.568;6.932;2022-07-23T00:12:39;55872.44;;;-144.14;99.98
7075;BME280;3578;51.568;6.932;2022-07-23T00:15:08;55834.34;;;-144.14;99.81
7075;BME280;3578;51.568;6.932;2022-07-23T00:17:36;55892.50;;;-144.14;99.55
7075;BME280;3578;51.568;6.932;2022-07-23T00:20:05;55896.50;;;-144.14;99.48
7075;BME280;3578;51.568;6.932;2022-07-23T00:22:32;55840.34;;;-144.14;99.85
7075;BME280;3578;51.568;6.932;2022-07-23T00:25:00;55886.47;;;-144.14;100.00
7075;BME280;3578;51.568;6.932;2022-07-23T00:27:29;55816.28;;;-144.14;100.00
7075;BME280;3578;51.568;6.932;2022-07-23T00:29:56;55854.38;;;-144.14;100.00
7075;BME280;3578;51.568;6.932;2022-07-23T00:32:23;55836.34;;;-144.14;100.00
7075;BME280;3578;51.568;6.932;2022-07-23T00:34:50;55804.25;;;-144.14;100.00
7075;BME280;3578;51.568;6.932;2022-07-23T00:37:17;55828.31;;;-144.14;100.00
7075;BME280;3578;51.568;6.932;2022-07-23T00:39:44;55796.22;;;-144.14;100.00
7075;BME280;3578;51.568;6.932;2022-07-23T00:42:11;55732.06;;;-144.14;100.00
7075;BME280;3578;51.568;6.932;2022-07-23T00:44:39;55766.13;;;-144.14;100.00
7075;BME280;3578;51.568;6.932;2022-07-23T00:47:06;55756.13;;;-144.14;100.00
7075;BME280;3578;51.568;6.932;2022-07-23T00:49:34;55760.13;;;-144.14;100.00
7075;BME280;3578;51.568;6.932;2022-07-23T00:52:02;55764.13;;;-144.14;100.00
7075;BME280;3578;51.568;6.932;2022-07-23T00:54:30;55768.16;;;-144.14;100.00
7075;BME280;3578;51.568;6.932;2022-07-23T00:56:57;55712.00;;;-144.14;100.00
7075;BME280;3578;51.568;6.932;2022-07-23T00:59:24;55738.06;;;-144.14;100.00
7075;BME280;3578;51.568;6.932;2022-07-23T01:01:52;55752.09;;;-144.14;100.00
7075;BME280;3578;51.568;6.932;2022-07-23T01:04:19;55699.97;;;-144.14;100.00
7075;BME280;3578;51.568;6.932;2022-07-23T01:06:46;55707.97;;;-144.14;100.00
7075;BME280;3578;51.568;6.932;2022-07-23T01:09:14;55667.88;;;-144.14;100.00
7075;BME280;3578;51.568;6.932;2022-07-23T01:11:41;55697.94;;;-144.14;100.00
7075;BME280;3578;51.568;6.932;2022-07-23T01:14:13;55714.00;;;-144.14;100.00
7075;BME280;3578;51.568;6.932;2022-07-23T01:16:40;55750.09;;;-144.14;100.00
7075;BME280;3578;51.568;6.932;2022-07-23T01:19:10;55691.94;;;-144.14;100.00
7075;BME280;3578;51.568;6.932;2022-07-23T01:21:40;55695.94;;;-144.14;100.00
7075;BME280;3578;51.568;6.932;2022-07-23T01:24:09;55736.06;;;-144.14;100.00
7075;BME280;3578;51.568;6.932;2022-07-23T01:26:37;55760.13;;;-144.14;100.00
7075;BME280;3578;51.568;6.932;2022-07-23T01:29:05;55780.19;;;-144.14;100.00
7075;BME280;3578;51.568;6.932;2022-07-23T01:31:32;55770.16;;;-144.14;100.00
7075;BME280;3578;51.568;6.932;2022-07-23T01:33:59;55784.19;;;-144.14;100.00
7075;BME280;3578;51.568;6.932;2022-07-23T01:36:26;55780.19;;;-144.14;100.00
7075;BME280;3578;51.568;6.932;2022-07-23T01:38:53;55752.09;;;-144.14;100.00
7075;BME280;3578;51.568;6.932;2022-07-23T01:41:22;55748.09;;;-144.14;100.00
7075;BME280;3578;51.568;6.932;2022-07-23T01:43:49;55756.13;;;-144.14;100.00
7075;BME280;3578;51.568;6.932;2022-07-23T01:46:17;55758.13;;;-144.14;100.00
7075;BME280;3578;51.568;6.932;2022-07-23T01:48:44;55800.25;;;-144.14;100.00
7075;BME280;3578;51.568;6.932;2022-07-23T01:51:11;55716.00;;;-144.14;100.00
7075;BME280;3578;51.568;6.932;2022-07-23T01:53:38;55742.06;;;-144.14;100.00
7075;BME280;3578;51.568;6.932;2022-07-23T01:56:05;55738.06;;;-144.14;100.00
7075;BME280;3578;51.568;6.932;2022-07-23T01:58:34;55728.03;;;-144.14;100.00
7075;BME280;3578;51.568;6.932;2022-07-23T02:01:01;55728.03;;;-144.14;100.00
7075;BME280;3578;51.568;6.932;2022-07-23T02:03:28;55697.94;;;-144.14;100.00
7075;BME280;3578;51.568;6.932;2022-07-23T02:05:55;55748.09;;;-144.14;100.00
7075;BME280;3578;51.568;6.932;2022-07-23T02:08:22;55671.88;;;-144.14;100.00
7075;BME280;3578;51.568;6.932;2022-07-23T02:10:49;55712.00;;;-144.14;100.00
7075;BME280;3578;51.568;6.932;2022-07-23T02:13:17;55663.84;;;-144.14;100.00
7075;BME280;3578;51.568;6.932;2022-07-23T02:15:46;55689.94;;;-144.14;100.00
7075;BME280;3578;51.568;6.932;2022-07-23T02:18:14;55683.91;;;-144.14;100.00
7075;BME280;3578;51.568;6.932;2022-07-23T02:20:41;55712.00;;;-144.14;100.00
7075;BME280;3578;51.568;6.932;2022-07-23T02:23:10;55637.78;;;-144.14;100.00
7075;BME280;3578;51.568;6.932;2022-07-23T02:25:37;55625.75;;;-144.14;100.00
7075;BME280;3578;51.568;6.932;2022-07-23T02:28:05;55563.59;;;-144.14;100.00
7075;BME280;3578;51.568;6.932;2022-07-23T02:30:32;55575.63;;;-144.14;100.00
7075;BME280;3578;51.568;6.932;2022-07-23T02:33:01;55615.72;;;-144.14;100.00
7075;BME280;3578;51.568;6.932;2022-07-23T02:35:28;55591.66;;;-144.14;100.00
7075;BME280;3578;51.568;6.932;2022-07-23T02:37:55;55589.66;;;-144.14;100.00
7075;BME280;3578;51.568;6.932;2022-07-23T02:40:22;55583.63;;;-144.14;100.00
7075;BME280;3578;51.568;6.932;2022-07-23T02:42:49;55603.69;;;-144.14;100.00
7075;BME280;3578;51.568;6.932;2022-07-23T02:45:16;55603.69;;;-144.14;100.00
7075;BME280;3578;51.568;6.932;2022-07-23T02:47:44;55619.75;;;-144.14;100.00
7075;BME280;3578;51.568;6.932;2022-07-23T02:50:12;55627.75;;;-144.14;100.00
7075;BME280;3578;51.568;6.932;2022-07-23T02:52:39;55591.66;;;-144.14;100.00
7075;BME280;3578;51.568;6.932;2022-07-23T02:55:07;55609.72;;;-144.14;100.00
7075;BME280;3578;51.568;6.932;2022-07-23T02:57:34;55611.72;;;-144.14;100.00
7075;BME280;3578;51.568;6.932;2022-07-23T03:00:02;55561.59;;;-144.14;100.00
7075;BME280;3578;51.568;6.932;2022-07-23T03:02:31;55583.63;;;-144.14;99.94
7075;BME280;3578;51.568;6.932;2022-07-23T03:04:58;55619.75;;;-144.14;99.89
7075;BME280;3578;51.568;6.932;2022-07-23T03:07:27;55623.75;;;-144.14;99.82
7075;BME280;3578;51.568;6.932;2022-07-23T03:09:54;55525.47;;;-144.14;100.00
7075;BME280;3578;51.568;6.932;2022-07-23T03:12:21;55551.56;;;-144.14;99.97
7075;BME280;3578;51.568;6.932;2022-07-23T03:14:48;55547.53;;;-144.14;100.00
7075;BME280;3578;51.568;6.932;2022-07-23T03:17:15;55533.50;;;-144.14;99.85
7075;BME280;3578;51.568;6.932;2022-07-23T03:19:42;55527.50;;;-144.14;99.90
7075;BME280;3578;51.568;6.932;2022-07-23T03:22:09;55485.38;;;-144.14;100.00
7075;BME280;3578;51.568;6.932;2022-07-23T03:24:38;55507.44;;;-144.14;100.00
7075;BME280;3578;51.568;6.932;2022-07-23T03:27:25;55471.34;;;-144.14;100.00
7075;BME280;3578;51.568;6.932;2022-07-23T03:29:54;55493.41;;;-144.14;100.00
7075;BME280;3578;51.568;6.932;2022-07-23T03:32:22;55487.38;;;-144.14;100.00
7075;BME280;3578;51.568;6.932;2022-07-23T03:34:50;55451.28;;;-144.14;100.00
7075;BME280;3578;51.568;6.932;2022-07-23T03:37:17;55447.28;;;-144.14;100.00
7075;BME280;3578;51.568;6.932;2022-07-23T03:39:46;55443.25;;;-144.14;100.00
7075;BME280;3578;51.568;6.932;2022-07-23T03:42:13;55411.19;;;-144.14;100.00
7075;BME280;3578;51.568;6.932;2022-07-23T03:44:40;55371.06;;;-144.14;100.00
7075;BME280;3578;51.568;6.932;2022-07-23T03:47:07;55457.28;;;-144.14;100.00
7075;BME280;3578;51.568;6.932;2022-07-23T03:49:35;55387.09;;;-144.14;100.00
7075;BME280;3578;51.568;6.932;2022-07-23T03:52:02;55437.25;;;-144.14;100.00
7075;BME280;3578;51.568;6.932;2022-07-23T03:54:29;55397.13;;;-144.14;100.00
7075;BME280;3578;51.568;6.932;2022-07-23T03:56:58;55391.13;;;-144.14;100.00
7075;BME280;3578;51.568;6.932;2022-07-23T03:59:25;55371.06;;;-144.14;100.00
7075;BME280;3578;51.568;6.932;2022-07-23T04:01:52;55413.19;;;-144.14;100.00
7075;BME280;3578;51.568;6.932;2022-07-23T04:04:19;55367.06;;;-144.14;100.00
7075;BME280;3578;51.568;6.932;2022-07-23T04:06:46;55377.09;;;-144.14;100.00
7075;BME280;3578;51.568;6.932;2022-07-23T04:09:13;55351.00;;;-144.14;100.00
7075;BME280;3578;51.568;6.932;2022-07-23T04:11:40;55427.22;;;-144.14;100.00
7075;BME280;3578;51.568;6.932;2022-07-23T04:14:08;55403.16;;;-144.14;100.00
7075;BME280;3578;51.568;6.932;2022-07-23T04:16:35;55435.25;;;-144.14;100.00
7075;BME280;3578;51.568;6.932;2022-07-23T04:19:02;55417.19;;;-144.14;100.00
7075;BME280;3578;51.568;6.932;2022-07-23T04:21:30;55435.25;;;-144.14;100.00
7075;BME280;3578;51.568;6.932;2022-07-23T04:23:57;55487.38;;;-144.14;100.00
7075;BME280;3578;51.568;6.932;2022-07-23T04:26:24;55407.16;;;-144.14;100.00
7075;BME280;3578;51.568;6.932;2022-07-23T04:28:52;55435.25;;;-144.14;100.00
7075;BME280;3578;51.568;6.932;2022-07-23T04:31:20;55403.16;;;-144.14;100.00
7075;BME280;3578;51.568;6.932;2022-07-23T04:33:47;55401.16;;;-144.14;100.00
7075;BME280;3578;51.568;6.932;2022-07-23T04:36:14;55433.22;;;-144.14;100.00
7075;BME280;3578;51.568;6.932;2022-07-23T04:38:41;55399.13;;;-144.14;100.00
7075;BME280;3578;51.568;6.932;2022-07-23T04:41:08;55371.06;;;-144.14;100.00
7075;BME280;3578;51.568;6.932;2022-07-23T04:43:35;55367.06;;;-144.14;100.00
7075;BME280;3578;51.568;6.932;2022-07-23T04:46:02;55417.19;;;-144.14;100.00
7075;BME280;3578;51.568;6.932;2022-07-23T04:48:31;55415.19;;;-144.14;100.00
7075;BME280;3578;51.568;6.932;2022-07-23T04:50:58;55437.25;;;-144.14;100.00
7075;BME280;3578;51.568;6.932;2022-07-23T04:53:25;55489.38;;;-144.14;100.00
7075;BME280;3578;51.568;6.932;2022-07-23T04:55:52;55447.28;;;-144.14;99.92
7075;BME280;3578;51.568;6.932;2022-07-23T04:58:19;55467.31;;;-144.14;99.91
7075;BME280;3578;51.568;6.932;2022-07-23T05:00:46;55439.25;;;-144.14;99.72
7075;BME280;3578;51.568;6.932;2022-07-23T05:03:13;55469.34;;;-144.14;99.75
7075;BME280;3578;51.568;6.932;2022-07-23T05:05:41;55477.34;;;-144.14;99.80
7075;BME280;3578;51.568;6.932;2022-07-23T05:08:08;55487.38;;;-144.14;99.95
7075;BME280;3578;51.568;6.932;2022-07-23T05:10:35;55493.41;;;-144.14;99.85
7075;BME280;3578;51.568;6.932;2022-07-23T05:13:02;55515.44;;;-144.14;99.74
7075;BME280;3578;51.568;6.932;2022-07-23T05:15:29;55491.38;;;-144.14;99.80
7075;BME280;3578;51.568;6.932;2022-07-23T05:17:57;55521.47;;;-144.14;99.79
7075;BME280;3578;51.568;6.932;2022-07-23T05:20:24;55539.53;;;-144.14;99.63
7075;BME280;3578;51.568;6.932;2022-07-23T05:22:52;55515.44;;;-144.14;99.80
7075;BME280;3578;51.568;6.932;2022-07-23T05:25:19;55563.59;;;-144.14;99.87
7075;BME280;3578;51.568;6.932;2022-07-23T05:27:46;55571.59;;;-144.14;99.85
7075;BME280;3578;51.568;6.932;2022-07-23T05:30:14;55599.69;;;-144.14;99.83
7075;BME280;3578;51.568;6.932;2022-07-23T05:32:41;55617.72;;;-144.14;99.53
7075;BME280;3578;51.568;6.932;2022-07-23T05:35:08;55627.75;;;-144.14;99.52
7075;BME280;3578;51.568;6.932;2022-07-23T05:37:36;55681.91;;;-144.14;99.52
7075;BME280;3578;51.568;6.932;2022-07-23T05:40:07;55681.91;;;-144.14;99.37
7075;BME280;3578;51.568;6.932;2022-07-23T05:42:34;55627.75;;;-144.14;99.54
7075;BME280;3578;51.568;6.932;2022-07-23T05:45:02;55667.88;;;-144.14;99.52
7075;BME280;3578;51.568;6.932;2022-07-23T05:47:39;55699.97;;;-144.14;99.57
7075;BME280;3578;51.568;6.932;2022-07-23T05:50:07;55667.88;;;-144.14;99.78
7075;BME280;3578;51.568;6.932;2022-07-23T05:52:34;55712.00;;;-144.14;99.90
7075;BME280;3578;51.568;6.932;2022-07-23T05:55:01;55748.09;;;-144.14;99.56
7075;BME280;3578;51.568;6.932;2022-07-23T05:57:34;55730.03;;;-144.14;99.68
7075;BME280;3578;51.568;6.932;2022-07-23T06:00:05;55732.06;;;-144.14;99.83
7075;BME280;3578;51.568;6.932;2022-07-23T06:02:33;55764.13;;;-144.14;99.82
7075;BME280;3578;51.568;6.932;2022-07-23T06:05:00;55746.09;;;-144.14;99.94
7075;BME280;3578;51.568;6.932;2022-07-23T06:07:27;55840.34;;;-144.14;99.93
7075;BME280;3578;51.568;6.932;2022-07-23T06:09:54;55810.25;;;-144.14;99.29
7075;BME280;3578;51.568;6.932;2022-07-23T06:12:21;55794.22;;;-144.14;99.24
7075;BME280;3578;51.568;6.932;2022-07-23T06:14:50;55802.25;;;-144.14;99.54
7075;BME280;3578;51.568;6.932;2022-07-23T06:17:18;55948.66;;;-144.14;99.10
7075;BME280;3578;51.568;6.932;2022-07-23T06:19:45;55974.72;;;-144.14;98.43
7075;BME280;3578;51.568;6.932;2022-07-23T06:22:12;56004.81;;;-144.14;98.31
7075;BME280;3578;51.568;6.932;2022-07-23T06:24:39;55980.75;;;-144.14;97.99
7075;BME280;3578;51.568;6.932;2022-07-23T06:27:06;55982.75;;;-144.14;97.10
7075;BME280;3578;51.568;6.932;2022-07-23T06:29:33;56020.88;;;-144.14;97.29
7075;BME280;3578;51.568;6.932;2022-07-23T06:32:01;56020.88;;;-144.14;96.91
7075;BME280;3578;51.568;6.932;2022-07-23T06:34:28;56030.88;;;-144.14;97.38
7075;BME280;3578;51.568;6.932;2022-07-23T06:36:56;56077.03;;;-144.14;97.53
7075;BME280;3578;51.568;6.932;2022-07-23T06:39:23;56026.88;;;-144.14;96.21
7075;BME280;3578;51.568;6.932;2022-07-23T06:41:50;56040.91;;;-144.14;96.01
7075;BME280;3578;51.568;6.932;2022-07-23T06:44:18;56060.97;;;-144.14;96.56
7075;BME280;3578;51.568;6.932;2022-07-23T06:46:45;56109.13;;;-144.14;97.17
7075;BME280;3578;51.568;6.932;2022-07-23T06:49:13;56095.06;;;-144.14;96.54
7075;BME280;3578;51.568;6.932;2022-07-23T06:51:41;56127.16;;;-144.14;95.29
7075;BME280;3578;51.568;6.932;2022-07-23T06:54:08;56177.31;;;-144.14;95.79
7075;BME280;3578;51.568;6.932;2022-07-23T06:56:35;56301.69;;;-144.14;92.54
7075;BME280;3578;51.568;6.932;2022-07-23T06:59:02;56313.72;;;-144.14;91.70
7075;BME280;3578;51.568;6.932;2022-07-23T07:01:30;56432.06;;;-144.14;91.10
7075;BME280;3578;51.568;6.932;2022-07-23T07:03:57;56656.75;;;-144.14;87.73
7075;BME280;3578;51.568;6.932;2022-07-23T07:06:26;56811.22;;;-144.14;83.72
7075;BME280;3578;51.568;6.932;2022-07-23T07:08:53;56809.22;;;-144.14;86.56
7075;BME280;3578;51.568;6.932;2022-07-23T07:11:21;56775.09;;;-144.14;88.12
7075;BME280;3578;51.568;6.932;2022-07-23T07:13:49;56805.19;;;-144.14;87.65
7075;BME280;3578;51.568;6.932;2022-07-23T07:16:16;56817.22;;;-144.14;88.77
7075;BME280;3578;51.568;6.932;2022-07-23T07:18:43;56833.28;;;-144.14;87.11
7075;BME280;3578;51.568;6.932;2022-07-23T07:21:11;56847.31;;;-144.14;86.24
7075;BME280;3578;51.568;6.932;2022-07-23T07:23:39;56807.19;;;-144.14;83.53
7075;BME280;3578;51.568;6.932;2022-07-23T07:26:06;56799.19;;;-144.14;82.35
7075;BME280;3578;51.568;6.932;2022-07-23T07:28:33;56734.97;;;-144.14;81.10
7075;BME280;3578;51.568;6.932;2022-07-23T07:31:01;56757.03;;;-144.14;83.21
7075;BME280;3578;51.568;6.932;2022-07-23T07:33:28;56694.84;;;-144.14;81.53
7075;BME280;3578;51.568;6.932;2022-07-23T07:35:55;56698.88;;;-144.14;81.30
7075;BME280;3578;51.568;6.932;2022-07-23T07:38:22;56680.81;;;-144.14;81.00
7075;BME280;3578;51.568;6.932;2022-07-23T07:40:51;56680.81;;;-144.14;80.41
7075;BME280;3578;51.568;6.932;2022-07-23T07:43:18;56622.63;;;-144.14;78.15
7075;BME280;3578;51.568;6.932;2022-07-23T07:45:45;56590.53;;;-144.14;83.03
7075;BME280;3578;51.568;6.932;2022-07-23T07:48:12;56556.44;;;-144.14;79.18
7075;BME280;3578;51.568;6.932;2022-07-23T07:50:39;56618.63;;;-144.14;81.46
7075;BME280;3578;51.568;6.932;2022-07-23T07:53:06;56668.78;;;-144.14;82.90
7075;BME280;3578;51.568;6.932;2022-07-23T07:55:34;56694.84;;;-144.14;82.88
7075;BME280;3578;51.568;6.932;2022-07-23T07:58:03;56686.84;;;-144.14;82.61
7075;BME280;3578;51.568;6.932;2022-07-23T08:00:30;56674.78;;;-144.14;79.52
7075;BME280;3578;51.568;6.932;2022-07-23T08:02:59;56666.78;;;-144.14;78.43
7075;BME280;3578;51.568;6.932;2022-07-23T08:05:28;56690.84;;;-144.14;78.21
7075;BME280;3578;51.568;6.932;2022-07-23T08:07:56;56692.84;;;-144.14;76.46
7075;BME280;3578;51.568;6.932;2022-07-23T08:10:24;56847.31;;;-144.14;81.00
7075;BME280;3578;51.568;6.932;2022-07-23T08:12:53;56819.25;;;-144.14;78.58
7075;BME280;3578;51.568;6.932;2022-07-23T08:15:25;56849.31;;;-144.14;80.57
7075;BME280;3578;51.568;6.932;2022-07-23T08:17:53;56877.41;;;-144.14;84.25
7075;BME280;3578;51.568;6.932;2022-07-23T08:20:22;56803.19;;;-144.14;81.44
7075;BME280;3578;51.568;6.932;2022-07-23T08:22:51;56803.19;;;-144.14;79.46
7075;BME280;3578;51.568;6.932;2022-07-23T08:25:23;56949.66;;;-144.14;78.05
7075;BME280;3578;51.568;6.932;2022-07-23T08:27:50;56911.53;;;-144.14;72.94
7075;BME280;3578;51.568;6.932;2022-07-23T08:30:18;56913.53;;;-144.14;70.10
7075;BME280;3578;51.568;6.932;2022-07-23T08:32:55;56843.31;;;-144.14;72.13
7075;BME280;3578;51.568;6.932;2022-07-23T08:35:26;56877.41;;;-144.14;74.42
7075;BME280;3578;51.568;6.932;2022-07-23T08:37:55;56867.38;;;-144.14;71.57
7075;BME280;3578;51.568;6.932;2022-07-23T08:40:22;56895.47;;;-144.14;75.15
7075;BME280;3578;51.568;6.932;2022-07-23T08:42:50;56911.53;;;-144.14;75.38
7075;BME280;3578;51.568;6.932;2022-07-23T08:45:21;56903.50;;;-144.14;74.13
7075;BME280;3578;51.568;6.932;2022-07-23T08:47:50;56889.47;;;-144.14;69.96
7075;BME280;3578;51.568;6.932;2022-07-23T08:50:19;56923.56;;;-144.14;71.39
7075;BME280;3578;51.568;6.932;2022-07-23T08:52:48;56979.75;;;-144.14;74.23
7075;BME280;3578;51.568;6.932;2022-07-23T08:55:17;56833.28;;;-144.14;66.29
7075;BME280;3578;51.568;6.932;2022-07-23T08:57:45;56821.25;;;-144.14;69.75
7075;BME280;3578;51.568;6.932;2022-07-23T09:00:15;56783.13;;;-144.14;69.91
7075;BME280;3578;51.568;6.932;2022-07-23T09:02:44;56827.25;;;-144.14;66.95
7075;BME280;3578;51.568;6.932;2022-07-23T09:05:13;56879.44;;;-144.14;68.45
7075;BME280;3578;51.568;6.932;2022-07-23T09:08:11;56979.75;;;-144.14;70.78
7075;BME280;3578;51.568;6.932;2022-07-23T09:10:51;56947.63;;;-144.14;67.83
7075;BME280;3578;51.568;6.932;2022-07-23T09:13:30;56975.72;;;-144.14;67.81
7075;BME280;3578;51.568;6.932;2022-07-23T09:16:02;56909.53;;;-144.14;62.82
7075;BME280;3578;51.568;6.932;2022-07-23T09:18:35;56961.69;;;-144.14;66.70
7075;BME280;3578;51.568;6.932;2022-07-23T09:21:19;56931.59;;;-144.14;63.85
7075;BME280;3578;51.568;6.932;2022-07-23T09:23:52;56975.72;;;-144.14;63.86
7075;BME280;3578;51.568;6.932;2022-07-23T09:26:26;57064.00;;;-144.14;67.14
7075;BME280;3578;51.568;6.932;2022-07-23T09:29:08;57094.09;;;-144.14;65.33
7075;BME280;3578;51.568;6.932;2022-07-23T09:31:46;57017.84;;;-144.14;61.67
7075;BME280;3578;51.568;6.932;2022-07-23T09:34:17;56991.78;;;-144.14;65.23
7075;BME280;3578;51.568;6.932;2022-07-23T09:36:45;57076.03;;;-144.14;65.16
7075;BME280;3578;51.568;6.932;2022-07-23T09:39:16;57035.91;;;-144.14;60.84
7075;BME280;3578;51.568;6.932;2022-07-23T09:41:48;57060.00;;;-144.14;59.61
7075;BME280;3578;51.568;6.932;2022-07-23T09:44:17;57080.06;;;-144.14;58.55
7075;BME280;3578;51.568;6.932;2022-07-23T09:46:46;57066.00;;;-144.14;57.24
7075;BME280;3578;51.568;6.932;2022-07-23T09:49:19;57098.09;;;-144.14;58.62
7075;BME280;3578;51.568;6.932;2022-07-23T09:51:53;57176.34;;;-144.14;64.10
7075;BME280;3578;51.568;6.932;2022-07-23T09:54:25;57186.41;;;-144.14;59.36
7075;BME280;3578;51.568;6.932;2022-07-23T09:56:53;57122.19;;;-144.14;54.29
7075;BME280;3578;51.568;6.932;2022-07-23T09:59:25;57116.16;;;-144.14;53.11
7075;BME280;3578;51.568;6.932;2022-07-23T10:01:55;57130.22;;;-144.14;55.23
7075;BME280;3578;51.568;6.932;2022-07-23T10:04:24;57102.13;;;-144.14;55.63
7075;BME280;3578;51.568;6.932;2022-07-23T10:06:53;57140.25;;;-144.14;53.91
7075;BME280;3578;51.568;6.932;2022-07-23T10:09:28;57118.19;;;-144.14;54.41
7075;BME280;3578;51.568;6.932;2022-07-23T10:11:57;57164.31;;;-144.14;56.38
7075;BME280;3578;51.568;6.932;2022-07-23T10:14:32;57168.34;;;-144.14;55.72
7075;BME280;3578;51.568;6.932;2022-07-23T10:17:01;57210.47;;;-144.14;55.47
7075;BME280;3578;51.568;6.932;2022-07-23T10:19:28;57232.53;;;-144.14;54.95
7075;BME280;3578;51.568;6.932;2022-07-23T10:22:00;57258.63;;;-144.14;53.86
7075;BME280;3578;51.568;6.932;2022-07-23T10:24:52;57326.84;;;-144.14;53.87
7075;BME280;3578;51.568;6.932;2022-07-23T10:27:47;57397.06;;;-144.14;55.49
7075;BME280;3578;51.568;6.932;2022-07-23T10:30:21;57276.69;;;-144.14;51.71
7075;BME280;3578;51.568;6.932;2022-07-23T10:33:09;57234.53;;;-144.14;52.04
7075;BME280;3578;51.568;6.932;2022-07-23T10:35:47;57200.44;;;-144.14;50.55
7075;BME280;3578;51.568;6.932;2022-07-23T10:38:24;57236.56;;;-144.14;52.23
7075;BME280;3578;51.568;6.932;2022-07-23T10:40:56;57274.69;;;-144.14;55.25
7075;BME280;3578;51.568;6.932;2022-07-23T10:43:25;57332.88;;;-144.14;53.79
7075;BME280;3578;51.568;6.932;2022-07-23T10:45:53;57413.13;;;-144.14;54.74
7075;BME280;3578;51.568;6.932;2022-07-23T10:48:23;57487.38;;;-144.14;57.54
7075;BME280;3578;51.568;6.932;2022-07-23T10:51:15;57497.41;;;-144.14;54.87
7075;BME280;3578;51.568;6.932;2022-07-23T10:53:57;57461.28;;;-144.14;50.08
7075;BME280;3578;51.568;6.932;2022-07-23T10:57:06;57481.34;;;-144.14;52.47
7075;BME280;3578;51.568;6.932;2022-07-23T11:00:20;57421.16;;;-144.14;49.26
7075;BME280;3578;51.568;6.932;2022-07-23T11:02:49;57483.34;;;-144.14;50.54
7075;BME280;3578;51.568;6.932;2022-07-23T11:05:17;57451.25;;;-144.14;50.04
7075;BME280;3578;51.568;6.932;2022-07-23T11:08:24;57465.28;;;-144.14;48.39
7075;BME280;3578;51.568;6.932;2022-07-23T11:10:54;57485.38;;;-144.14;47.87
7075;BME280;3578;51.568;6.932;2022-07-23T11:16:24;57567.63;;;-144.14;50.66
7075;BME280;3578;51.568;6.932;2022-07-23T11:19:04;57565.63;;;-144.14;47.54
7075;BME280;3578;51.568;6.932;2022-07-23T11:21:51;57593.72;;;-144.14;47.87
7075;BME280;3578;51.568;6.932;2022-07-23T11:24:20;57603.75;;;-144.14;48.43
7075;BME280;3578;51.568;6.932;2022-07-23T11:26:57;57551.59;;;-144.14;45.35
7075;BME280;3578;51.568;6.932;2022-07-23T11:29:46;57609.78;;;-144.14;47.60
7075;BME280;3578;51.568;6.932;2022-07-23T11:32:34;57571.66;;;-144.14;45.48
7075;BME280;3578;51.568;6.932;2022-07-23T11:35:22;57509.44;;;-144.14;44.20
7075;BME280;3578;51.568;6.932;2022-07-23T11:37:51;57559.59;;;-144.14;44.69
7075;BME280;3578;51.568;6.932;2022-07-23T11:40:24;57593.72;;;-144.14;44.69
7075;BME280;3578;51.568;6.932;2022-07-23T11:42:56;57543.56;;;-144.14;43.14
7075;BME280;3578;51.568;6.932;2022-07-23T11:45:30;57607.78;;;-144.14;45.19
7075;BME280;3578;51.568;6.932;2022-07-23T11:47:57;57641.88;;;-144.14;44.51
7075;BME280;3578;51.568;6.932;2022-07-23T11:50:25;57565.63;;;-144.14;44.12
7075;BME280;3578;51.568;6.932;2022-07-23T11:52:52;57627.84;;;-144.14;45.35
7075;BME280;3578;51.568;6.932;2022-07-23T11:55:20;57740.22;;;-144.14;46.34
7075;BME280;3578;51.568;6.932;2022-07-23T11:57:47;57752.25;;;-144.14;45.82
7075;BME280;3578;51.568;6.932;2022-07-23T12:00:18;57738.19;;;-144.14;44.24
7075;BME280;3578;51.568;6.932;2022-07-23T12:02:49;57738.19;;;-144.14;45.38
7075;BME280;3578;51.568;6.932;2022-07-23T12:05:18;57754.25;;;-144.14;45.94
7075;BME280;3578;51.568;6.932;2022-07-23T12:07:49;57798.41;;;-144.14;44.23
7075;BME280;3578;51.568;6.932;2022-07-23T12:10:20;57760.28;;;-144.14;44.22
7075;BME280;3578;51.568;6.932;2022-07-23T12:12:50;57858.59;;;-144.14;46.71
7075;BME280;3578;51.568;6.932;2022-07-23T12:15:20;57842.56;;;-144.14;44.23
7075;BME280;3578;51.568;6.932;2022-07-23T12:17:50;57818.47;;;-144.14;45.73
7075;BME280;3578;51.568;6.932;2022-07-23T12:20:20;57816.47;;;-144.14;44.17
7075;BME280;3578;51.568;6.932;2022-07-23T12:22:50;57818.47;;;-144.14;43.93
7075;BME280;3578;51.568;6.932;2022-07-23T12:25:19;57768.31;;;-144.14;43.91
7075;BME280;3578;51.568;6.932;2022-07-23T12:27:58;57842.56;;;-144.14;44.80
7075;BME280;3578;51.568;6.932;2022-07-23T12:30:27;57796.41;;;-144.14;43.07
7075;BME280;3578;51.568;6.932;2022-07-23T12:32:58;57874.66;;;-144.14;43.37
7075;BME280;3578;51.568;6.932;2022-07-23T12:35:33;57874.66;;;-144.14;43.41
7075;BME280;3578;51.568;6.932;2022-07-23T12:38:02;57872.66;;;-144.14;43.43
7075;BME280;3578;51.568;6.932;2022-07-23T12:40:33;57896.75;;;-144.14;43.95
7075;BME280;3578;51.568;6.932;2022-07-23T12:43:03;57836.53;;;-144.14;44.37
7075;BME280;3578;51.568;6.932;2022-07-23T12:45:45;57888.72;;;-144.14;46.95
7075;BME280;3578;51.568;6.932;2022-07-23T12:48:23;57736.19;;;-144.14;43.12
7075;BME280;3578;51.568;6.932;2022-07-23T12:50:57;57770.31;;;-144.14;43.49
7075;BME280;3578;51.568;6.932;2022-07-23T12:53:27;57830.50;;;-144.14;42.39
7075;BME280;3578;51.568;6.932;2022-07-23T12:56:05;57838.53;;;-144.14;44.02
7075;BME280;3578;51.568;6.932;2022-07-23T12:58:45;57890.72;;;-144.14;42.76
7075;BME280;3578;51.568;6.932;2022-07-23T13:01:24;57922.84;;;-144.14;43.47
7075;BME280;3578;51.568;6.932;2022-07-23T13:03:59;57950.94;;;-144.14;43.04
7075;BME280;3578;51.568;6.932;2022-07-23T13:06:28;58049.25;;;-144.14;43.39
7075;BME280;3578;51.568;6.932;2022-07-23T13:08:56;58091.41;;;-144.14;43.15
7075;BME280;3578;51.568;6.932;2022-07-23T13:11:23;58017.16;;;-144.14;43.12
7075;BME280;3578;51.568;6.932;2022-07-23T13:13:50;58165.66;;;-144.14;43.09